createdAt,value
2022-10-26T00:01:11.351Z,9.61
2022-10-26T00:03:40.019Z,9.57
2022-10-26T00:06:15.690Z,9.62
2022-10-26T00:08:42.457Z,9.56
2022-10-26T00:11:09.185Z,9.61
2022-10-26T00:13:36.936Z,9.51
2022-10-26T00:16:24.937Z,9.43
2022-10-26T00:18:51.373Z,9.43
2022-10-26T00:21:18.524Z,9.40
2022-10-26T00:23:45.097Z,9.44
2022-10-26T00:26:11.992Z,9.32
2022-10-26T00:28:38.571Z,9.21
2022-10-26T00:31:08.733Z,9.20
2022-10-26T00:33:35.957Z,9.15
2022-10-26T00:36:02.666Z,9.08
2022-10-26T00:38:29.199Z,9.05
2022-10-26T00:40:55.819Z,8.99
2022-10-26T00:43:22.178Z,8.96
2022-10-26T00:45:55.160Z,8.96
2022-10-26T00:48:31.677Z,9.04
2022-10-26T00:51:01.186Z,9.07
2022-10-26T00:53:28.894Z,8.99
2022-10-26T00:55:56.620Z,9.08
2022-10-26T00:58:24.396Z,9.13
2022-10-26T01:00:51.492Z,9.07
2022-10-26T01:03:18.427Z,9.10
2022-10-26T01:05:47.466Z,9.16
2022-10-26T01:08:17.139Z,9.14
2022-10-26T01:10:44.158Z,9.06
2022-10-26T01:13:13.171Z,9.09
2022-10-26T01:15:55.311Z,9.12
2022-10-26T01:18:35.279Z,9.05
2022-10-26T01:21:29.579Z,8.99
2022-10-26T01:24:35.047Z,9.02
2022-10-26T01:27:04.488Z,8.98
2022-10-26T01:30:01.605Z,8.95
2022-10-26T01:32:40.034Z,9.04
2022-10-26T01:35:16.189Z,8.98
2022-10-26T01:37:48.247Z,8.88
2022-10-26T01:40:25.382Z,8.99
2022-10-26T01:42:55.262Z,8.95
2022-10-26T01:45:22.249Z,8.87
2022-10-26T01:47:49.827Z,8.83
2022-10-26T01:50:18.594Z,8.81
2022-10-26T01:52:44.962Z,8.79
2022-10-26T01:55:39.372Z,8.73
2022-10-26T01:58:24.232Z,8.76
2022-10-26T02:01:02.065Z,8.77
2022-10-26T02:03:40.386Z,8.88
2022-10-26T02:06:14.389Z,8.86
2022-10-26T02:08:52.332Z,9.02
2022-10-26T02:11:36.129Z,8.95
2022-10-26T02:17:11.772Z,8.97
2022-10-26T02:19:52.726Z,9.16
2022-10-26T02:22:34.122Z,8.95
2022-10-26T02:25:07.164Z,8.89
2022-10-26T02:27:38.365Z,8.80
2022-10-26T02:30:06.080Z,8.78
2022-10-26T02:32:37.585Z,8.85
2022-10-26T02:35:05.698Z,8.83
2022-10-26T02:37:35.214Z,8.82
2022-10-26T02:40:06.075Z,8.62
2022-10-26T02:42:33.566Z,8.66
2022-10-26T02:45:09.967Z,8.59
2022-10-26T02:47:36.528Z,8.37
2022-10-26T02:50:03.671Z,8.35
2022-10-26T02:52:42.272Z,8.36
2022-10-26T02:55:36.731Z,8.35
2022-10-26T02:58:11.837Z,8.40
2022-10-26T03:00:38.939Z,8.40
2022-10-26T03:03:05.403Z,8.35
2022-10-26T03:05:33.010Z,8.27
2022-10-26T03:08:01.059Z,8.20
2022-10-26T03:10:27.637Z,8.13
2022-10-26T03:12:54.492Z,8.04
2022-10-26T03:15:21.006Z,8.02
2022-10-26T03:17:47.828Z,8.06
2022-10-26T03:20:14.602Z,8.05
2022-10-26T03:22:41.077Z,8.08
2022-10-26T03:27:35.390Z,7.91
2022-10-26T03:30:01.865Z,7.93
2022-10-26T03:32:28.268Z,7.93
2022-10-26T03:34:54.718Z,7.90
2022-10-26T03:37:21.103Z,7.88
2022-10-26T03:39:47.539Z,7.87
2022-10-26T03:42:13.939Z,7.86
2022-10-26T03:44:40.428Z,7.85
2022-10-26T03:47:06.819Z,7.86
2022-10-26T03:49:33.369Z,7.78
2022-10-26T03:51:59.750Z,7.68
2022-10-26T03:54:26.214Z,7.66
2022-10-26T03:56:55.184Z,7.65
2022-10-26T03:59:21.994Z,7.72
2022-10-26T04:01:50.601Z,7.71
2022-10-26T04:04:19.329Z,7.71
2022-10-26T04:09:13.114Z,7.82
2022-10-26T04:11:39.519Z,7.99
2022-10-26T04:14:05.963Z,8.10
2022-10-26T04:16:33.467Z,8.10
2022-10-26T04:19:00.635Z,8.07
2022-10-26T04:21:27.066Z,8.02
2022-10-26T04:23:53.564Z,7.97
2022-10-26T04:26:20.319Z,7.99
2022-10-26T04:28:46.739Z,8.01
2022-10-26T04:31:13.134Z,7.94
2022-10-26T04:33:39.734Z,7.96
2022-10-26T04:36:06.541Z,7.87
2022-10-26T04:38:33.083Z,7.80
2022-10-26T04:40:59.509Z,7.90
2022-10-26T04:43:25.990Z,7.83
2022-10-26T04:45:57.073Z,7.82
2022-10-26T04:50:51.867Z,8.07
2022-10-26T04:53:18.266Z,7.90
2022-10-26T04:55:44.924Z,7.88
2022-10-26T04:58:11.404Z,7.88
2022-10-26T05:00:37.838Z,7.98
2022-10-26T05:03:06.610Z,8.04
2022-10-26T05:05:34.965Z,7.99
2022-10-26T05:08:01.578Z,8.04
2022-10-26T05:10:28.797Z,7.98
2022-10-26T05:12:57.250Z,7.94
2022-10-26T05:15:23.656Z,8.03
2022-10-26T05:18:06.356Z,7.95
2022-10-26T05:20:34.872Z,7.94
2022-10-26T05:23:07.107Z,8.15
2022-10-26T05:25:38.023Z,8.13
2022-10-26T05:28:10.810Z,8.14
2022-10-26T05:30:39.515Z,8.04
2022-10-26T05:33:07.615Z,7.94
2022-10-26T05:35:34.266Z,7.91
2022-10-26T05:38:07.407Z,7.90
2022-10-26T05:40:34.161Z,7.85
2022-10-26T05:43:02.041Z,7.91
2022-10-26T05:45:29.283Z,7.94
2022-10-26T05:47:58.603Z,7.87
2022-10-26T05:50:28.372Z,7.90
2022-10-26T05:52:55.855Z,7.86
2022-10-26T05:55:22.931Z,7.79
2022-10-26T05:57:49.916Z,7.83
2022-10-26T06:00:19.917Z,7.89
2022-10-26T06:03:08.135Z,7.83
2022-10-26T06:05:50.632Z,7.87
2022-10-26T06:08:17.246Z,7.85
2022-10-26T06:10:43.923Z,7.70
2022-10-26T06:13:10.595Z,7.63
2022-10-26T06:15:49.012Z,7.59
2022-10-26T06:18:35.188Z,7.63
2022-10-26T06:21:34.012Z,7.70
2022-10-26T06:24:14.610Z,7.67
2022-10-26T06:27:02.703Z,7.70
2022-10-26T06:29:49.935Z,7.67
2022-10-26T06:32:17.556Z,7.77
2022-10-26T06:34:48.739Z,7.91
2022-10-26T06:37:15.591Z,7.86
2022-10-26T06:39:52.602Z,7.93
2022-10-26T06:42:21.492Z,7.92
2022-10-26T06:44:48.574Z,8.08
2022-10-26T06:47:23.440Z,7.99
2022-10-26T06:50:24.219Z,8.05
2022-10-26T06:53:16.601Z,7.99
2022-10-26T06:55:46.209Z,8.01
2022-10-26T06:58:21.639Z,8.14
2022-10-26T07:00:50.125Z,8.21
2022-10-26T07:03:16.975Z,8.32
2022-10-26T07:05:45.241Z,8.32
2022-10-26T07:08:11.741Z,8.47
2022-10-26T07:10:39.273Z,8.50
2022-10-26T07:13:06.687Z,8.51
2022-10-26T07:15:34.551Z,8.55
2022-10-26T07:18:03.174Z,8.62
2022-10-26T07:20:29.608Z,8.57
2022-10-26T07:22:57.049Z,8.59
2022-10-26T07:25:25.293Z,8.71
2022-10-26T07:27:52.579Z,8.72
2022-10-26T07:30:19.082Z,8.77
2022-10-26T07:32:45.527Z,8.86
2022-10-26T07:35:12.019Z,8.98
2022-10-26T07:37:38.521Z,9.12
2022-10-26T07:40:06.937Z,9.06
2022-10-26T07:42:34.381Z,9.19
2022-10-26T07:45:00.874Z,9.32
2022-10-26T07:47:27.295Z,9.43
2022-10-26T07:49:53.718Z,9.45
2022-10-26T07:52:20.106Z,9.42
2022-10-26T07:54:46.510Z,9.53
2022-10-26T07:57:12.924Z,9.59
2022-10-26T07:59:39.560Z,9.66
2022-10-26T08:02:06.148Z,9.70
2022-10-26T08:04:32.809Z,9.71
2022-10-26T08:06:59.263Z,9.79
2022-10-26T08:09:25.671Z,9.91
2022-10-26T08:11:52.246Z,10.02
2022-10-26T08:14:18.645Z,10.09
2022-10-26T08:16:45.637Z,10.03
2022-10-26T08:19:12.049Z,10.15
2022-10-26T08:21:40.440Z,10.21
2022-10-26T08:24:07.828Z,10.28
2022-10-26T08:26:34.324Z,10.47
2022-10-26T08:29:00.735Z,10.46
2022-10-26T08:31:27.128Z,10.56
2022-10-26T08:33:53.580Z,10.57
2022-10-26T08:36:26.062Z,10.76
2022-10-26T08:38:52.736Z,10.82
2022-10-26T08:41:34.957Z,10.76
2022-10-26T08:44:20.689Z,10.84
2022-10-26T08:46:53.452Z,10.82
2022-10-26T08:49:30.924Z,10.86
2022-10-26T08:52:01.451Z,11.07
2022-10-26T08:54:55.911Z,11.20
2022-10-26T08:57:25.186Z,11.20
2022-10-26T09:00:00.392Z,11.18
2022-10-26T09:02:27.052Z,11.49
2022-10-26T09:04:55.169Z,11.56
2022-10-26T09:07:45.959Z,11.55
2022-10-26T09:10:25.744Z,11.64
2022-10-26T09:13:04.256Z,11.58
2022-10-26T09:15:48.837Z,11.75
2022-10-26T09:18:43.253Z,12.00
2022-10-26T09:21:25.435Z,11.99
2022-10-26T09:24:03.918Z,12.23
2022-10-26T09:26:54.718Z,12.57
2022-10-26T09:29:28.783Z,12.51
2022-10-26T09:31:57.311Z,12.68
2022-10-26T09:34:31.571Z,12.74
2022-10-26T09:36:58.457Z,12.65
2022-10-26T09:39:36.673Z,12.74
2022-10-26T09:42:10.313Z,12.76
2022-10-26T09:44:47.728Z,12.91
2022-10-26T09:47:27.827Z,13.15
2022-10-26T09:49:58.705Z,13.45
2022-10-26T09:52:25.131Z,13.62
2022-10-26T09:54:51.598Z,13.79
2022-10-26T09:57:20.257Z,14.02
2022-10-26T09:59:47.970Z,14.41
2022-10-26T10:02:37.670Z,14.66
2022-10-26T10:08:24.454Z,15.01
2022-10-26T10:10:56.810Z,15.01
2022-10-26T10:13:25.508Z,14.95
2022-10-26T10:16:20.739Z,14.97
2022-10-26T10:18:55.668Z,15.33
2022-10-26T10:21:36.814Z,15.20
2022-10-26T10:24:25.379Z,14.81
2022-10-26T10:27:05.782Z,15.16
2022-10-26T10:29:34.426Z,15.42
2022-10-26T10:32:03.389Z,15.83
2022-10-26T10:34:31.502Z,16.36
2022-10-26T10:36:59.395Z,17.19
2022-10-26T10:39:33.332Z,18.82
2022-10-26T10:42:01.101Z,19.63
2022-10-26T10:44:31.402Z,18.44
2022-10-26T10:47:04.062Z,19.29
2022-10-26T10:49:31.332Z,20.44
2022-10-26T10:51:58.527Z,19.35
2022-10-26T10:54:36.503Z,18.68
2022-10-26T10:57:25.979Z,19.36
2022-10-26T11:00:12.011Z,19.63
2022-10-26T11:03:16.695Z,19.72
2022-10-26T11:06:05.737Z,20.03
2022-10-26T11:08:57.151Z,19.62
2022-10-26T11:11:27.271Z,20.07
2022-10-26T11:14:02.742Z,19.96
2022-10-26T11:16:44.162Z,19.71
2022-10-26T11:19:22.272Z,21.61
2022-10-26T11:21:53.835Z,22.17
2022-10-26T11:24:38.210Z,21.27
2022-10-26T11:27:18.822Z,19.95
2022-10-26T11:30:13.662Z,19.05
2022-10-26T11:32:45.891Z,18.60
2022-10-26T11:35:18.659Z,18.76
2022-10-26T11:38:04.477Z,18.78
2022-10-26T11:41:01.855Z,18.11
2022-10-26T11:43:37.220Z,17.36
2022-10-26T11:46:19.276Z,17.43
2022-10-26T11:49:10.799Z,18.36
2022-10-26T11:51:50.710Z,19.93
2022-10-26T11:54:25.561Z,21.89
2022-10-26T11:56:55.542Z,22.21
2022-10-26T11:59:28.009Z,22.77
2022-10-26T12:02:04.771Z,23.73
2022-10-26T12:04:35.571Z,23.49
2022-10-26T12:07:08.381Z,24.85
2022-10-26T12:09:38.814Z,25.36
2022-10-26T12:12:14.465Z,25.60
2022-10-26T12:14:54.038Z,25.09
2022-10-26T12:17:43.731Z,26.24
2022-10-26T12:20:41.563Z,26.06
2022-10-26T12:23:12.178Z,25.56
2022-10-26T12:25:40.257Z,26.05
2022-10-26T12:28:39.454Z,26.56
2022-10-26T12:31:36.974Z,27.47
2022-10-26T12:34:14.912Z,24.20
2022-10-26T12:36:56.645Z,22.53
2022-10-26T12:39:36.248Z,22.83
2022-10-26T12:42:05.736Z,22.22
2022-10-26T12:45:07.411Z,21.11
2022-10-26T12:47:33.769Z,20.83
2022-10-26T12:50:06.565Z,19.40
2022-10-26T12:52:54.851Z,18.98
2022-10-26T12:55:42.620Z,18.17
2022-10-26T12:58:38.432Z,18.51
2022-10-26T13:01:30.801Z,19.07
2022-10-26T13:04:15.346Z,18.96
2022-10-26T13:06:54.506Z,18.93
2022-10-26T13:09:24.938Z,19.86
2022-10-26T13:11:55.331Z,20.05
2022-10-26T13:14:25.643Z,20.43
2022-10-26T13:16:52.711Z,19.95
2022-10-26T13:19:30.534Z,19.23
2022-10-26T13:21:59.678Z,19.31
2022-10-26T13:24:29.688Z,18.88
2022-10-26T13:27:05.147Z,18.57
2022-10-26T13:29:32.931Z,18.06
2022-10-26T13:32:00.261Z,18.11
2022-10-26T13:34:30.955Z,17.80
2022-10-26T13:37:00.614Z,17.86
2022-10-26T13:39:31.606Z,18.11
2022-10-26T13:41:59.686Z,17.50
2022-10-26T13:44:35.199Z,17.76
2022-10-26T13:47:10.690Z,17.93
2022-10-26T13:49:40.470Z,18.05
2022-10-26T13:52:21.218Z,18.08
2022-10-26T13:54:55.877Z,18.81
2022-10-26T13:57:37.456Z,18.83
2022-10-26T14:00:23.203Z,19.28
2022-10-26T14:02:49.983Z,19.76
2022-10-26T14:05:18.331Z,20.06
2022-10-26T14:07:49.478Z,20.07
2022-10-26T14:10:48.501Z,20.62
2022-10-26T14:13:18.149Z,21.04
2022-10-26T14:15:46.257Z,21.18
2022-10-26T14:18:26.489Z,22.12
2022-10-26T14:20:57.051Z,21.49
2022-10-26T14:23:27.355Z,21.29
2022-10-26T14:25:59.088Z,20.75
2022-10-26T14:28:31.893Z,20.09
2022-10-26T14:31:20.744Z,19.20
2022-10-26T14:33:47.385Z,18.81
2022-10-26T14:36:15.612Z,18.62
2022-10-26T14:38:44.822Z,18.35
2022-10-26T14:41:15.742Z,18.92
2022-10-26T14:43:43.854Z,18.54
2022-10-26T14:46:18.306Z,18.50
2022-10-26T14:48:54.706Z,18.07
2022-10-26T14:51:26.708Z,17.74
2022-10-26T14:53:58.635Z,17.68
2022-10-26T14:56:43.323Z,17.43
2022-10-26T14:59:31.268Z,17.27
2022-10-26T15:02:21.299Z,16.95
2022-10-26T15:05:01.594Z,16.57
2022-10-26T15:07:36.689Z,16.59
2022-10-26T15:10:03.502Z,16.65
2022-10-26T15:12:34.745Z,16.51
2022-10-26T15:15:11.172Z,16.35
2022-10-26T15:17:42.260Z,16.37
2022-10-26T15:20:17.549Z,16.49
2022-10-26T15:22:52.607Z,17.20
2022-10-26T15:25:26.189Z,16.56
2022-10-26T15:27:53.048Z,16.40
2022-10-26T15:30:27.824Z,16.15
2022-10-26T15:32:55.866Z,16.17
2022-10-26T15:35:28.334Z,16.26
2022-10-26T15:37:56.266Z,15.89
2022-10-26T15:42:59.742Z,15.52
2022-10-26T15:45:31.703Z,15.47
2022-10-26T15:48:00.342Z,15.54
2022-10-26T15:50:28.745Z,15.40
2022-10-26T15:53:01.588Z,15.59
2022-10-26T15:55:30.120Z,15.42
2022-10-26T15:57:56.581Z,15.49
2022-10-26T16:00:23.162Z,15.25
2022-10-26T16:02:49.694Z,15.28
2022-10-26T16:05:16.872Z,15.20
2022-10-26T16:07:46.433Z,15.13
2022-10-26T16:10:17.558Z,15.11
2022-10-26T16:12:45.088Z,14.91
2022-10-26T16:15:17.354Z,14.91
2022-10-26T16:17:44.081Z,14.86
2022-10-26T16:20:14.614Z,14.78
2022-10-26T16:22:46.740Z,14.76
2022-10-26T16:25:13.878Z,14.80
2022-10-26T16:27:40.707Z,14.92
2022-10-26T16:30:07.808Z,14.89
2022-10-26T16:32:34.198Z,14.92
2022-10-26T16:35:00.794Z,14.64
2022-10-26T16:37:29.187Z,14.53
2022-10-26T16:39:55.557Z,14.52
2022-10-26T16:42:22.058Z,14.59
2022-10-26T16:44:48.532Z,14.42
2022-10-26T16:47:14.962Z,14.40
2022-10-26T16:49:43.294Z,14.49
2022-10-26T16:52:10.010Z,14.37
2022-10-26T16:54:36.426Z,14.15
2022-10-26T16:57:03.228Z,14.09
2022-10-26T16:59:29.825Z,14.06
2022-10-26T17:01:56.918Z,14.03
2022-10-26T17:04:23.854Z,13.95
2022-10-26T17:06:50.535Z,14.17
2022-10-26T17:09:16.955Z,14.00
2022-10-26T17:11:43.361Z,14.00
2022-10-26T17:14:09.863Z,13.80
2022-10-26T17:16:36.279Z,13.74
2022-10-26T17:19:02.735Z,13.65
2022-10-26T17:21:31.574Z,13.67
2022-10-26T17:23:58.642Z,13.65
2022-10-26T17:26:25.119Z,13.60
2022-10-26T17:28:52.757Z,13.50
2022-10-26T17:31:19.283Z,13.42
2022-10-26T17:33:50.111Z,13.34
2022-10-26T17:36:20.208Z,13.38
2022-10-26T17:38:51.055Z,13.53
2022-10-26T17:41:19.549Z,13.52
2022-10-26T17:43:47.270Z,13.71
2022-10-26T17:46:20.468Z,13.63
2022-10-26T17:48:47.126Z,13.64
2022-10-26T17:51:16.296Z,13.56
2022-10-26T17:53:42.761Z,13.60
2022-10-26T17:56:15.407Z,13.55
2022-10-26T17:58:41.891Z,13.58
2022-10-26T18:01:10.906Z,13.61
2022-10-26T18:03:38.666Z,13.58
2022-10-26T18:06:09.688Z,13.54
2022-10-26T18:08:37.829Z,13.50
2022-10-26T18:11:05.569Z,13.54
2022-10-26T18:13:33.992Z,13.46
2022-10-26T18:16:16.256Z,13.40
2022-10-26T18:18:50.070Z,13.52
2022-10-26T18:21:19.538Z,13.35
2022-10-26T18:23:46.811Z,13.20
2022-10-26T18:26:17.158Z,13.18
2022-10-26T18:28:44.559Z,13.33
2022-10-26T18:31:14.606Z,13.23
2022-10-26T18:33:41.507Z,13.20
2022-10-26T18:36:18.586Z,13.27
2022-10-26T18:38:48.126Z,13.40
2022-10-26T18:41:16.703Z,13.54
2022-10-26T18:43:45.425Z,13.58
2022-10-26T18:46:20.785Z,13.78
2022-10-26T18:48:48.200Z,13.79
2022-10-26T18:51:17.283Z,13.94
2022-10-26T18:53:45.244Z,13.85
2022-10-26T18:56:14.470Z,13.89
2022-10-26T18:58:46.804Z,14.00
2022-10-26T19:01:17.825Z,14.05
2022-10-26T19:03:45.374Z,14.12
2022-10-26T19:06:18.241Z,14.19
2022-10-26T19:08:45.297Z,14.01
2022-10-26T19:11:16.339Z,14.25
2022-10-26T19:13:43.396Z,14.09
2022-10-26T19:16:17.251Z,14.16
2022-10-26T19:18:48.732Z,14.17
2022-10-26T19:21:19.199Z,14.14
2022-10-26T19:23:47.899Z,14.20
2022-10-26T19:26:17.783Z,14.22
2022-10-26T19:28:44.259Z,14.15
2022-10-26T19:31:13.138Z,14.20
2022-10-26T19:33:39.819Z,14.21
2022-10-26T19:36:10.410Z,14.31
2022-10-26T19:38:36.905Z,14.25
2022-10-26T19:41:06.129Z,14.11
2022-10-26T19:43:34.643Z,14.15
2022-10-26T19:46:08.683Z,14.02
2022-10-26T19:48:35.302Z,14.00
2022-10-26T19:51:01.728Z,13.88
2022-10-26T19:53:28.370Z,13.84
2022-10-26T19:55:59.652Z,13.79
2022-10-26T19:58:28.666Z,13.68
2022-10-26T20:01:00.313Z,13.55
2022-10-26T20:03:28.921Z,13.41
2022-10-26T20:05:57.025Z,13.51
2022-10-26T20:08:24.120Z,13.45
2022-10-26T20:10:53.536Z,13.40
2022-10-26T20:13:20.030Z,13.33
2022-10-26T20:15:46.820Z,13.28
2022-10-26T20:18:13.573Z,13.31
2022-10-26T20:20:40.014Z,13.26
2022-10-26T20:23:08.023Z,13.08
2022-10-26T20:25:35.798Z,13.09
2022-10-26T20:28:03.396Z,12.92
2022-10-26T20:30:32.647Z,12.87
2022-10-26T20:32:59.647Z,12.83
2022-10-26T20:35:26.065Z,12.83
2022-10-26T20:37:53.805Z,12.78
2022-10-26T20:40:24.022Z,12.75
2022-10-26T20:42:52.389Z,12.70
2022-10-26T20:45:26.543Z,12.68
2022-10-26T20:47:54.551Z,12.70
2022-10-26T20:50:26.187Z,12.68
2022-10-26T20:53:02.952Z,12.78
2022-10-26T20:55:36.177Z,12.66
2022-10-26T20:58:09.591Z,12.54
2022-10-26T21:00:43.369Z,12.57
2022-10-26T21:03:11.447Z,12.53
2022-10-26T21:05:46.843Z,12.48
2022-10-26T21:08:13.600Z,12.42
2022-10-26T21:10:40.076Z,12.60
2022-10-26T21:13:06.562Z,12.68
2022-10-26T21:15:35.451Z,12.67
2022-10-26T21:18:01.992Z,12.71
2022-10-26T21:20:29.034Z,12.82
2022-10-26T21:22:55.527Z,12.90
2022-10-26T21:25:21.926Z,12.84
2022-10-26T21:27:48.669Z,12.87
2022-10-26T21:30:15.207Z,12.90
2022-10-26T21:32:41.604Z,12.98
2022-10-26T21:35:08.180Z,13.14
2022-10-26T21:37:34.581Z,13.16
2022-10-26T21:40:01.077Z,13.17
2022-10-26T21:42:27.471Z,13.10
2022-10-26T21:44:53.896Z,13.29
2022-10-26T21:47:20.283Z,13.39
2022-10-26T21:49:46.681Z,13.22
2022-10-26T21:52:13.118Z,13.15
2022-10-26T21:54:39.517Z,13.14
2022-10-26T21:57:05.985Z,13.15
2022-10-26T21:59:32.426Z,13.05
2022-10-26T22:01:59.056Z,12.98
2022-10-26T22:04:25.666Z,12.99
2022-10-26T22:06:52.078Z,13.03
2022-10-26T22:09:18.572Z,13.09
2022-10-26T22:11:45.012Z,13.02
2022-10-26T22:14:14.265Z,12.94
2022-10-26T22:16:40.675Z,12.83
2022-10-26T22:19:08.203Z,12.79
2022-10-26T22:21:37.803Z,12.80
2022-10-26T22:24:04.751Z,12.90
2022-10-26T22:26:33.841Z,12.97
2022-10-26T22:29:00.272Z,13.13
2022-10-26T22:31:32.840Z,13.10
2022-10-26T22:34:04.814Z,13.21
2022-10-26T22:36:33.970Z,13.32
2022-10-26T22:39:00.576Z,13.26
2022-10-26T22:41:27.117Z,13.26
2022-10-26T22:43:53.534Z,13.25
2022-10-26T22:46:25.016Z,13.25
2022-10-26T22:48:59.997Z,13.13
2022-10-26T22:51:29.399Z,13.07
2022-10-26T22:53:57.935Z,13.10
2022-10-26T22:58:53.398Z,13.05
2022-10-26T23:01:23.096Z,12.93
2022-10-26T23:03:49.954Z,12.94
2022-10-26T23:06:18.779Z,12.99
2022-10-26T23:08:45.560Z,13.04
2022-10-26T23:11:14.970Z,13.01
2022-10-26T23:13:41.755Z,13.00
2022-10-26T23:16:17.888Z,12.95
2022-10-26T23:18:44.401Z,12.96
2022-10-26T23:21:12.757Z,12.93
2022-10-26T23:23:39.973Z,12.91
2022-10-26T23:26:09.293Z,12.83
2022-10-26T23:28:36.399Z,12.80
2022-10-26T23:31:03.686Z,12.83
2022-10-26T23:33:30.505Z,12.82
2022-10-26T23:35:57.434Z,12.86
2022-10-26T23:38:24.676Z,12.80
2022-10-26T23:40:52.828Z,12.76
2022-10-26T23:43:20.061Z,12.82
2022-10-26T23:45:47.353Z,12.71
2022-10-26T23:48:14.115Z,12.64
2022-10-26T23:50:44.608Z,12.74
2022-10-26T23:53:12.348Z,12.69
2022-10-26T23:55:38.835Z,12.73
2022-10-26T23:58:05.324Z,12.57
